Time;durP1;ratioP1;P1;durP2;ratioP2;P2;SDS_P1;SDS_P2;PMS_P1;PMS_P2;Temp;Humidity;BMP_temperature;BMP_pressure;BME280_temperature;BME280_humidity;BME280_pressure;Samples;Min_cycle;Max_cycle;Signal;HPM_P1;HPM_P2
2022/08/04 00:02:00;;;;;;;3.05;1.33;;;;;;;;;;4977980;28;20031;-69
2022/08/04 00:04:31;;;;;;;1.77;1.20;;;;;;;;;;4977724;28;20054;-72
2022/08/04 00:07:08;;;;;;;2.13;1.40;;;;;;;;;;4977935;28;20027;-74
2022/08/04 00:09:47;;;;;;;2.45;1.50;;;;;;;;;;4978228;28;20089;-70
2022/08/04 00:12:15;;;;;;;1.77;1.40;;;;;;;;;;4977912;28;20477;-69
2022/08/04 00:14:46;;;;;;;2.08;1.40;;;;;;;;;;4977518;28;20058;-71
2022/08/04 00:17:13;;;;;;;3.05;2.00;;;;;;;;;;4977759;28;20436;-72
2022/08/04 00:19:52;;;;;;;2.65;1.60;;;;;;;;;;4960118;28;20146;-72
2022/08/04 00:22:22;;;;;;;2.40;1.70;;;;;;;;;;4977681;28;20030;-71
2022/08/04 00:24:48;;;;;;;2.15;1.65;;;;;;;;;;4977436;28;20070;-69
2022/08/04 00:27:15;;;;;;;2.67;1.83;;;;;;;;;;4977542;28;20023;-72
2022/08/04 00:29:41;;;;;;;4.00;1.60;;;;;;;;;;4977505;28;20489;-72
2022/08/04 00:32:08;;;;;;;2.03;1.40;;;;;;;;;;4977214;28;20481;-71
2022/08/04 00:34:34;;;;;;;2.25;1.60;;;;;;;;;;4977411;28;20034;-69
2022/08/04 00:37:00;;;;;;;4.05;1.70;;;;;;;;;;4977364;28;20035;-73
2022/08/04 00:39:27;;;;;;;1.90;1.50;;;;;;;;;;4977602;28;20155;-73
2022/08/04 00:42:11;;;;;;;2.67;1.75;;;;;;;;;;4977305;28;20030;-72
2022/08/04 00:44:41;;;;;;;1.27;1.02;;;;;;;;;;4959630;28;20121;-70
2022/08/04 00:47:30;;;;;;;1.60;1.30;;;;;;;;;;4977473;28;20469;-70
2022/08/04 00:50:04;;;;;;;2.72;1.50;;;;;;;;;;4976247;28;20041;-73
2022/08/04 00:52:48;;;;;;;3.67;2.00;;;;;;;;;;4976842;28;20027;-72
2022/08/04 00:55:21;;;;;;;3.58;1.75;;;;;;;;;;4959364;28;20421;-73
2022/08/04 00:57:47;;;;;;;2.55;1.77;;;;;;;;;;4977276;28;20081;-72
2022/08/04 01:00:14;;;;;;;2.90;1.70;;;;;;;;;;4976624;28;20022;-72
2022/08/04 01:02:43;;;;;;;3.50;1.73;;;;;;;;;;4959361;28;20031;-70
2022/08/04 01:05:12;;;;;;;2.08;1.42;;;;;;;;;;4976582;28;20054;-71
2022/08/04 01:07:49;;;;;;;2.20;1.63;;;;;;;;;;4975947;28;20441;-70
2022/08/04 01:10:15;;;;;;;5.75;1.92;;;;;;;;;;4976591;28;20030;-70
2022/08/04 01:12:51;;;;;;;2.47;1.58;;;;;;;;;;4959140;28;20023;-72
2022/08/04 01:15:35;;;;;;;5.88;2.60;;;;;;;;;;4976545;28;20030;-71
2022/08/04 01:18:01;;;;;;;4.57;2.70;;;;;;;;;;4976379;28;20514;-72
2022/08/04 01:20:32;;;;;;;4.22;2.70;;;;;;;;;;4958976;28;20035;-70
2022/08/04 01:22:58;;;;;;;5.85;3.42;;;;;;;;;;4976627;28;20034;-69
2022/08/04 01:25:42;;;;;;;7.50;3.13;;;;;;;;;;4976788;28;20077;-72
2022/08/04 01:28:19;;;;;;;5.43;3.10;;;;;;;;;;4976732;28;20030;-70
2022/08/04 01:30:49;;;;;;;5.57;3.30;;;;;;;;;;4976169;28;20031;-71
2022/08/04 01:33:16;;;;;;;5.18;3.10;;;;;;;;;;4976147;28;20477;-72
2022/08/04 01:35:54;;;;;;;5.32;2.85;;;;;;;;;;4976083;28;20053;-71
2022/08/04 01:38:25;;;;;;;6.97;3.38;;;;;;;;;;4976808;28;20030;-71
2022/08/04 01:40:52;;;;;;;5.45;3.00;;;;;;;;;;4976540;28;20031;-72
2022/08/04 01:43:19;;;;;;;4.15;2.78;;;;;;;;;;4975976;28;20037;-70
2022/08/04 01:45:49;;;;;;;5.00;2.92;;;;;;;;;;4975881;28;20519;-71
2022/08/04 01:48:16;;;;;;;6.88;3.70;;;;;;;;;;4975781;28;20042;-70
2022/08/04 01:50:42;;;;;;;6.05;3.47;;;;;;;;;;4976067;28;20023;-71
2022/08/04 01:53:09;;;;;;;7.45;3.63;;;;;;;;;;4958341;28;20027;-73
2022/08/04 01:55:35;;;;;;;5.97;3.45;;;;;;;;;;4975663;28;20019;-70
2022/08/04 01:58:01;;;;;;;8.98;4.32;;;;;;;;;;4975892;28;20401;-70
2022/08/04 02:00:28;;;;;;;9.15;5.00;;;;;;;;;;4975569;28;20026;-69
2022/08/04 02:02:55;;;;;;;9.48;4.57;;;;;;;;;;4975867;28;20395;-71
2022/08/04 02:05:22;;;;;;;8.60;4.35;;;;;;;;;;4975298;28;20081;-70
2022/08/04 02:07:51;;;;;;;9.02;4.45;;;;;;;;;;4975381;28;20034;-71
2022/08/04 02:10:20;;;;;;;8.68;3.88;;;;;;;;;;4975678;28;20019;-71
2022/08/04 02:12:56;;;;;;;9.15;3.70;;;;;;;;;;4975339;28;20050;-74
2022/08/04 02:15:22;;;;;;;7.57;3.17;;;;;;;;;;4975579;28;20062;-72
2022/08/04 02:17:54;;;;;;;8.90;3.53;;;;;;;;;;4975793;28;20058;-70
2022/08/04 02:20:34;;;;;;;5.97;2.97;;;;;;;;;;4975235;28;20038;-72
2022/08/04 02:23:03;;;;;;;8.40;3.28;;;;;;;;;;4975511;28;20031;-69
2022/08/04 02:25:32;;;;;;;7.10;2.80;;;;;;;;;;4975112;28;20504;-69
2022/08/04 02:28:13;;;;;;;5.57;2.75;;;;;;;;;;4975048;28;20033;-71
2022/08/04 02:30:46;;;;;;;8.80;3.08;;;;;;;;;;4975310;28;20022;-72
2022/08/04 02:33:15;;;;;;;7.57;2.70;;;;;;;;;;4975041;28;20035;-70
2022/08/04 02:35:43;;;;;;;7.45;3.00;;;;;;;;;;4975290;28;20387;-69
2022/08/04 02:38:35;;;;;;;10.65;3.10;;;;;;;;;;4975783;28;20038;-71
2022/08/04 02:41:01;;;;;;;7.38;3.35;;;;;;;;;;4975186;28;20027;-73
2022/08/04 02:43:31;;;;;;;10.32;3.42;;;;;;;;;;4974845;28;20469;-71
2022/08/04 02:45:57;;;;;;;8.63;3.83;;;;;;;;;;4975085;28;20456;-72
2022/08/04 02:48:24;;;;;;;10.30;3.40;;;;;;;;;;4974726;28;20054;-70
2022/08/04 02:50:52;;;;;;;9.00;4.30;;;;;;;;;;4975260;28;20023;-73
2022/08/04 02:53:21;;;;;;;8.63;3.88;;;;;;;;;;4957315;28;20030;-72
2022/08/04 02:55:47;;;;;;;8.25;3.72;;;;;;;;;;4974963;28;20058;-70
2022/08/04 02:58:16;;;;;;;9.15;4.07;;;;;;;;;;4974634;28;20027;-70
2022/08/04 03:00:44;;;;;;;9.63;4.30;;;;;;;;;;4974485;28;20555;-72
2022/08/04 03:03:13;;;;;;;5.53;3.55;;;;;;;;;;4974635;28;20054;-69
2022/08/04 03:05:39;;;;;;;8.00;4.22;;;;;;;;;;4974461;28;20054;-69
2022/08/04 03:08:24;;;;;;;6.35;3.63;;;;;;;;;;4974467;28;20544;-73
2022/08/04 03:11:12;;;;;;;7.18;4.25;;;;;;;;;;4974542;28;20038;-71
2022/08/04 03:13:47;;;;;;;7.88;4.22;;;;;;;;;;4974782;28;20104;-70
2022/08/04 03:16:29;;;;;;;10.30;4.45;;;;;;;;;;4974447;28;20029;-73
2022/08/04 03:19:14;;;;;;;9.25;4.70;;;;;;;;;;4974741;28;20027;-70
2022/08/04 03:21:43;;;;;;;8.70;4.07;;;;;;;;;;4974641;28;20026;-70
2022/08/04 03:24:29;;;;;;;8.85;4.55;;;;;;;;;;4974343;28;20058;-71
2022/08/04 03:26:55;;;;;;;9.50;4.47;;;;;;;;;;4974873;28;20041;-70
2022/08/04 03:29:42;;;;;;;11.10;4.35;;;;;;;;;;4974554;28;20019;-72
2022/08/04 03:32:26;;;;;;;9.32;4.38;;;;;;;;;;4976372;28;20066;-70
2022/08/04 03:34:55;;;;;;;9.45;4.40;;;;;;;;;;4978305;28;20026;-69
2022/08/04 03:37:30;;;;;;;13.85;5.13;;;;;;;;;;4978201;28;20564;-71
2022/08/04 03:40:14;;;;;;;11.15;4.72;;;;;;;;;;4978679;28;20023;-71
2022/08/04 03:42:44;;;;;;;11.82;4.95;;;;;;;;;;4978170;28;20132;-71
2022/08/04 03:45:18;;;;;;;9.40;4.95;;;;;;;;;;4978134;28;20019;-69
2022/08/04 03:48:20;;;;;;;11.90;4.82;;;;;;;;;;4977957;28;20035;-71
2022/08/04 03:53:07;;;;;;;11.80;4.85;;;;;;;;;;4918518;29;20047;-71
2022/08/04 03:53:41;;;;;;;10.60;5.22;;;;;;;;;;4976427;28;20038;-69
2022/08/04 03:56:10;;;;;;;10.00;4.55;;;;;;;;;;4978476;28;20023;-72
2022/08/04 03:58:56;;;;;;;8.70;4.18;;;;;;;;;;4978099;28;20109;-73
2022/08/04 04:01:35;;;;;;;11.98;4.70;;;;;;;;;;4947760;28;20031;-72
2022/08/04 04:04:19;;;;;;;12.02;4.63;;;;;;;;;;4977464;28;20134;-70
2022/08/04 04:06:45;;;;;;;11.10;5.07;;;;;;;;;;4977582;28;20105;-73
2022/08/04 04:09:17;;;;;;;11.07;4.20;;;;;;;;;;4977884;28;20054;-69
2022/08/04 04:11:43;;;;;;;8.77;4.28;;;;;;;;;;4977798;28;20073;-71
2022/08/04 04:14:28;;;;;;;10.98;4.57;;;;;;;;;;4977650;28;20031;-70
2022/08/04 04:17:12;;;;;;;12.43;5.03;;;;;;;;;;4977517;28;20022;-72
2022/08/04 04:20:00;;;;;;;9.23;4.68;;;;;;;;;;4977501;28;20162;-70
2022/08/04 04:22:25;;;;;;;10.35;4.30;;;;;;;;;;4959850;28;20058;-72
2022/08/04 04:24:58;;;;;;;10.48;4.03;;;;;;;;;;4977397;28;20062;-72
2022/08/04 04:27:30;;;;;;;10.85;4.72;;;;;;;;;;4977796;28;20031;-70
2022/08/04 04:30:08;;;;;;;9.93;4.72;;;;;;;;;;4977259;28;20429;-69
2022/08/04 04:32:40;;;;;;;8.18;4.00;;;;;;;;;;4977286;28;20019;-70
2022/08/04 04:35:06;;;;;;;8.77;4.72;;;;;;;;;;4959859;28;20082;-68
2022/08/04 04:37:38;;;;;;;7.32;3.80;;;;;;;;;;4977105;28;20022;-71
2022/08/04 04:40:21;;;;;;;11.05;3.78;;;;;;;;;;4978102;28;20113;-73
2022/08/04 04:42:58;;;;;;;8.68;4.18;;;;;;;;;;4977228;28;20453;-71
2022/08/04 04:45:53;;;;;;;9.30;3.80;;;;;;;;;;4977532;28;20037;-69
2022/08/04 04:48:31;;;;;;;10.68;4.10;;;;;;;;;;4964455;28;20043;-71
2022/08/04 04:51:00;;;;;;;7.60;4.30;;;;;;;;;;4977436;28;20027;-73
2022/08/04 04:53:35;;;;;;;7.68;3.58;;;;;;;;;;4959486;28;20077;-73
2022/08/04 04:56:20;;;;;;;7.07;3.45;;;;;;;;;;4959240;28;20045;-72
2022/08/04 04:58:46;;;;;;;9.55;3.78;;;;;;;;;;4977066;28;20113;-72
2022/08/04 05:01:24;;;;;;;6.07;3.17;;;;;;;;;;4976716;28;20481;-69
2022/08/04 05:03:53;;;;;;;6.97;3.33;;;;;;;;;;4977083;28;20029;-72
2022/08/04 05:06:26;;;;;;;8.15;3.97;;;;;;;;;;4976903;28;20031;-71
2022/08/04 05:09:04;;;;;;;12.13;4.28;;;;;;;;;;4976603;28;20027;-73
2022/08/04 05:11:36;;;;;;;10.50;3.33;;;;;;;;;;4976586;28;20023;-69
2022/08/04 05:14:20;;;;;;;6.57;3.75;;;;;;;;;;4976532;28;20029;-71
2022/08/04 05:16:50;;;;;;;8.30;3.78;;;;;;;;;;4976485;28;20037;-72
2022/08/04 05:19:19;;;;;;;5.43;3.17;;;;;;;;;;4959121;28;20023;-70
2022/08/04 05:22:03;;;;;;;12.73;4.07;;;;;;;;;;4959086;28;20042;-72
2022/08/04 05:24:32;;;;;;;6.53;2.63;;;;;;;;;;4976637;28;20030;-71
2022/08/04 05:27:01;;;;;;;7.90;2.95;;;;;;;;;;4958832;28;20058;-70
2022/08/04 05:29:30;;;;;;;9.93;3.20;;;;;;;;;;4958866;28;20115;-70
2022/08/04 05:31:57;;;;;;;6.78;3.20;;;;;;;;;;4958883;28;20031;-72
2022/08/04 05:34:31;;;;;;;8.02;3.05;;;;;;;;;;4976399;28;20506;-73
2022/08/04 05:36:58;;;;;;;6.72;3.05;;;;;;;;;;4976647;28;20106;-69
2022/08/04 05:39:27;;;;;;;9.50;2.80;;;;;;;;;;4976531;28;20030;-70
2022/08/04 05:41:53;;;;;;;7.03;2.88;;;;;;;;;;4975994;28;20102;-71
2022/08/04 05:44:21;;;;;;;8.38;3.17;;;;;;;;;;4976205;28;20027;-73
2022/08/04 05:46:51;;;;;;;6.85;2.80;;;;;;;;;;4975768;28;20031;-72
2022/08/04 05:49:17;;;;;;;11.05;3.03;;;;;;;;;;4975871;28;20023;-72
2022/08/04 05:51:45;;;;;;;8.05;2.95;;;;;;;;;;4976048;28;20481;-73
2022/08/04 05:54:12;;;;;;;8.98;2.80;;;;;;;;;;4975132;28;20027;-70
2022/08/04 05:56:38;;;;;;;6.97;2.90;;;;;;;;;;4975686;28;20401;-73
2022/08/04 05:59:06;;;;;;;10.30;2.90;;;;;;;;;;4975674;28;20065;-69
2022/08/04 06:01:33;;;;;;;10.20;3.13;;;;;;;;;;4975523;28;20023;-69
2022/08/04 06:04:00;;;;;;;8.40;2.65;;;;;;;;;;4958037;28;20027;-71
2022/08/04 06:06:26;;;;;;;7.07;3.25;;;;;;;;;;4976023;28;20045;-71
2022/08/04 06:08:52;;;;;;;11.95;3.00;;;;;;;;;;4975417;28;20068;-72
2022/08/04 06:11:19;;;;;;;7.30;2.72;;;;;;;;;;4975421;28;20478;-72
2022/08/04 06:13:50;;;;;;;7.30;2.58;;;;;;;;;;4975392;28;20015;-70
2022/08/04 06:16:18;;;;;;;9.88;2.90;;;;;;;;;;4975900;28;20031;-73
2022/08/04 06:18:45;;;;;;;7.80;2.30;;;;;;;;;;4975677;28;20102;-71
2022/08/04 06:21:12;;;;;;;6.68;2.25;;;;;;;;;;4975833;28;20286;-73
2022/08/04 06:23:39;;;;;;;6.38;1.70;;;;;;;;;;4957894;28;20027;-72
2022/08/04 06:26:06;;;;;;;6.20;2.42;;;;;;;;;;4975471;28;20073;-71
2022/08/04 06:28:33;;;;;;;8.10;2.35;;;;;;;;;;4975564;28;20031;-71
2022/08/04 06:31:02;;;;;;;9.88;2.38;;;;;;;;;;4975327;28;20019;-71
2022/08/04 06:33:35;;;;;;;7.88;2.20;;;;;;;;;;4975056;28;20023;-71
2022/08/04 06:36:03;;;;;;;6.47;1.80;;;;;;;;;;4975604;28;20485;-70
2022/08/04 06:38:30;;;;;;;8.02;2.38;;;;;;;;;;4975536;28;20042;-72
2022/08/04 06:40:57;;;;;;;8.82;2.38;;;;;;;;;;4974946;28;20114;-70
2022/08/04 06:43:24;;;;;;;7.25;2.25;;;;;;;;;;4974813;28;20520;-73
2022/08/04 06:45:50;;;;;;;6.18;2.00;;;;;;;;;;4975127;28;20025;-72
2022/08/04 06:48:17;;;;;;;7.97;2.33;;;;;;;;;;4974704;28;20038;-71
2022/08/04 06:50:45;;;;;;;5.70;1.92;;;;;;;;;;4957521;28;20015;-72
2022/08/04 06:53:11;;;;;;;6.32;2.30;;;;;;;;;;4975253;28;20105;-71
2022/08/04 06:55:37;;;;;;;6.82;1.98;;;;;;;;;;4974768;28;20026;-71
2022/08/04 06:58:04;;;;;;;7.03;2.15;;;;;;;;;;4974989;28;20489;-72
2022/08/04 07:00:31;;;;;;;5.78;1.80;;;;;;;;;;4974530;28;20027;-70
2022/08/04 07:02:58;;;;;;;8.20;2.53;;;;;;;;;;4974618;28;20109;-71
2022/08/04 07:05:24;;;;;;;5.85;1.75;;;;;;;;;;4974177;28;20513;-71
2022/08/04 07:07:50;;;;;;;6.88;1.77;;;;;;;;;;4974198;28;20031;-71
2022/08/04 07:10:16;;;;;;;10.82;2.35;;;;;;;;;;4974504;28;20098;-73
2022/08/04 07:12:43;;;;;;;8.20;2.08;;;;;;;;;;4974481;28;20039;-70
2022/08/04 07:15:10;;;;;;;6.88;2.35;;;;;;;;;;4974490;28;20105;-71
2022/08/04 07:17:36;;;;;;;5.68;2.10;;;;;;;;;;4974448;28;20106;-72
2022/08/04 07:20:06;;;;;;;6.88;2.35;;;;;;;;;;4974672;28;20026;-73
2022/08/04 07:22:32;;;;;;;5.22;1.83;;;;;;;;;;4974420;28;20085;-70
2022/08/04 07:24:59;;;;;;;7.10;1.83;;;;;;;;;;4974377;28;20031;-71
2022/08/04 07:27:25;;;;;;;5.63;2.00;;;;;;;;;;4974274;28;20050;-73
2022/08/04 07:29:52;;;;;;;7.53;2.10;;;;;;;;;;4974303;28;20031;-75
2022/08/04 07:32:21;;;;;;;12.23;2.15;;;;;;;;;;4974299;28;20102;-72
2022/08/04 07:34:47;;;;;;;;;;;;;;;;;;4974672;28;20046;-72
2022/08/04 07:37:14;;;;;;;7.70;2.10;;;;;;;;;;4974341;28;19906;-71
2022/08/04 07:39:40;;;;;;;5.22;1.80;;;;;;;;;;4975301;28;20031;-69
2022/08/04 07:42:06;;;;;;;5.75;1.73;;;;;;;;;;4956823;28;20401;-71
2022/08/04 07:44:33;;;;;;;4.70;1.90;;;;;;;;;;4974460;28;20046;-70
2022/08/04 07:47:00;;;;;;;4.90;1.67;;;;;;;;;;4974082;28;20158;-72
2022/08/04 07:49:26;;;;;;;10.77;2.40;;;;;;;;;;4956726;28;20429;-69
2022/08/04 07:51:53;;;;;;;6.20;1.88;;;;;;;;;;4974309;28;20026;-70
2022/08/04 07:54:20;;;;;;;8.45;2.03;;;;;;;;;;4974381;28;20106;-72
2022/08/04 07:56:48;;;;;;;4.80;1.80;;;;;;;;;;4974096;28;20029;-71
2022/08/04 07:59:15;;;;;;;8.30;2.00;;;;;;;;;;4974331;28;20031;-70
2022/08/04 08:01:41;;;;;;;8.15;1.88;;;;;;;;;;4974000;28;20030;-69
2022/08/04 08:04:08;;;;;;;3.40;1.63;;;;;;;;;;4956556;28;20141;-72
2022/08/04 08:06:35;;;;;;;4.63;2.03;;;;;;;;;;4973947;28;20066;-73
2022/08/04 08:09:07;;;;;;;8.10;2.33;;;;;;;;;;4973952;28;20488;-71
2022/08/04 08:11:33;;;;;;;5.93;2.08;;;;;;;;;;4974273;28;20511;-72
2022/08/04 08:13:59;;;;;;;5.47;2.20;;;;;;;;;;4973960;28;20497;-71
2022/08/04 08:16:26;;;;;;;5.35;1.90;;;;;;;;;;4974151;28;20381;-71
2022/08/04 08:18:52;;;;;;;6.57;1.70;;;;;;;;;;4976859;28;20027;-72
2022/08/04 08:21:21;;;;;;;6.78;2.30;;;;;;;;;;4977780;28;20124;-71
2022/08/04 08:23:49;;;;;;;9.60;2.47;;;;;;;;;;4977476;28;20041;-69
2022/08/04 08:26:15;;;;;;;10.00;2.03;;;;;;;;;;4977636;28;20254;-70
2022/08/04 08:28:41;;;;;;;6.18;2.08;;;;;;;;;;4977274;28;20094;-72
2022/08/04 08:31:07;;;;;;;8.23;2.00;;;;;;;;;;4977284;28;20026;-73
2022/08/04 08:33:34;;;;;;;4.47;1.95;;;;;;;;;;4977522;28;20033;-71
2022/08/04 08:36:11;;;;;;;6.70;1.70;;;;;;;;;;4977232;28;20045;-74
2022/08/04 08:38:44;;;;;;;5.75;1.85;;;;;;;;;;4977534;28;20031;-71
2022/08/04 08:41:19;;;;;;;6.07;1.95;;;;;;;;;;4977426;28;20085;-71
2022/08/04 08:43:54;;;;;;;6.20;1.98;;;;;;;;;;4977091;28;20109;-71
2022/08/04 08:46:32;;;;;;;7.00;1.98;;;;;;;;;;4977247;28;20058;-72
2022/08/04 08:49:10;;;;;;;5.70;1.70;;;;;;;;;;4959654;28;20117;-71
2022/08/04 08:51:44;;;;;;;7.47;2.22;;;;;;;;;;4977496;28;20462;-72
2022/08/04 08:54:33;;;;;;;6.85;1.80;;;;;;;;;;4977261;28;20097;-70
2022/08/04 08:57:10;;;;;;;7.45;2.00;;;;;;;;;;4969362;28;20046;-70
2022/08/04 08:59:52;;;;;;;4.00;1.58;;;;;;;;;;4959132;28;20089;-69
2022/08/04 09:02:18;;;;;;;5.70;1.73;;;;;;;;;;4976687;28;20110;-72
2022/08/04 09:04:47;;;;;;;4.28;1.70;;;;;;;;;;4976467;28;20133;-71
2022/08/04 09:07:13;;;;;;;4.07;1.60;;;;;;;;;;4977115;28;20082;-70
2022/08/04 09:09:45;;;;;;;4.95;1.90;;;;;;;;;;4976609;28;20101;-68
2022/08/04 09:12:17;;;;;;;4.78;1.70;;;;;;;;;;4976548;28;20419;-71
2022/08/04 09:14:43;;;;;;;4.70;1.75;;;;;;;;;;4959163;28;20473;-73
2022/08/04 09:17:13;;;;;;;4.78;1.80;;;;;;;;;;4976706;28;20023;-72
2022/08/04 09:19:44;;;;;;;3.80;1.60;;;;;;;;;;4976769;28;20037;-70
2022/08/04 09:22:29;;;;;;;3.22;1.25;;;;;;;;;;4976672;28;20019;-74
2022/08/04 09:25:07;;;;;;;5.32;1.13;;;;;;;;;;4976322;28;20034;-70
2022/08/04 09:27:39;;;;;;;3.70;1.50;;;;;;;;;;4976234;28;20030;-72
2022/08/04 09:30:06;;;;;;;5.55;1.58;;;;;;;;;;4975761;28;20034;-72
2022/08/04 09:32:40;;;;;;;3.72;1.50;;;;;;;;;;4976180;28;20050;-70
2022/08/04 09:35:15;;;;;;;7.15;2.42;;;;;;;;;;4976175;28;20106;-71
2022/08/04 09:37:53;;;;;;;5.25;1.67;;;;;;;;;;4976595;28;20138;-70
2022/08/04 09:40:25;;;;;;;5.13;1.80;;;;;;;;;;4976578;28;20022;-72
2022/08/04 09:43:09;;;;;;;3.17;1.67;;;;;;;;;;4976024;28;20027;-70
2022/08/04 09:45:38;;;;;;;4.00;1.45;;;;;;;;;;4958542;28;20405;-71
2022/08/04 09:48:06;;;;;;;3.95;1.42;;;;;;;;;;4976372;28;20054;-69
2022/08/04 09:50:39;;;;;;;5.38;1.63;;;;;;;;;;4975853;28;20115;-73
2022/08/04 09:53:16;;;;;;;4.57;1.80;;;;;;;;;;4975787;28;20077;-72
2022/08/04 09:55:47;;;;;;;6.95;1.58;;;;;;;;;;4975750;28;20027;-74
2022/08/04 09:58:32;;;;;;;5.45;1.80;;;;;;;;;;4976259;28;20101;-73
2022/08/04 10:01:03;;;;;;;4.80;1.35;;;;;;;;;;4958112;28;20035;-70
2022/08/04 10:03:35;;;;;;;4.53;1.60;;;;;;;;;;4975626;28;20481;-71
2022/08/04 10:06:20;;;;;;;5.57;1.67;;;;;;;;;;4975184;28;20062;-71
2022/08/04 10:09:15;;;;;;;5.20;1.90;;;;;;;;;;4975414;28;20421;-72
2022/08/04 10:12:00;;;;;;;4.60;1.90;;;;;;;;;;4923604;28;20047;-69
2022/08/04 10:14:44;;;;;;;5.05;1.98;;;;;;;;;;4975458;28;20026;-72
2022/08/04 10:17:42;;;;;;;5.60;1.70;;;;;;;;;;4975851;28;20035;-71
2022/08/04 10:20:27;;;;;;;4.97;1.80;;;;;;;;;;4958826;28;20023;-72
2022/08/04 10:23:11;;;;;;;3.53;1.52;;;;;;;;;;4975250;28;20034;-69
2022/08/04 10:25:45;;;;;;;5.25;1.60;;;;;;;;;;4975491;28;20030;-70
2022/08/04 10:28:13;;;;;;;5.93;1.65;;;;;;;;;;4975430;28;20058;-74
2022/08/04 10:30:40;;;;;;;4.85;1.80;;;;;;;;;;4975136;28;20026;-74
2022/08/04 10:33:12;;;;;;;3.90;1.33;;;;;;;;;;4975599;28;20030;-71
2022/08/04 10:35:45;;;;;;;5.25;2.08;;;;;;;;;;4975052;28;20530;-72
2022/08/04 10:38:18;;;;;;;5.05;1.83;;;;;;;;;;4975053;28;20034;-71
2022/08/04 10:41:08;;;;;;;4.85;1.50;;;;;;;;;;4975841;28;20031;-73
2022/08/04 10:43:42;;;;;;;4.45;1.42;;;;;;;;;;4975490;28;20058;-72
2022/08/04 10:46:11;;;;;;;5.15;1.58;;;;;;;;;;4974875;28;20038;-73
2022/08/04 10:48:57;;;;;;;2.83;1.60;;;;;;;;;;4975052;28;20026;-72
2022/08/04 10:51:41;;;;;;;2.80;1.80;;;;;;;;;;4975015;28;20030;-70
2022/08/04 10:54:13;;;;;;;4.82;1.40;;;;;;;;;;4975271;28;20027;-71
2022/08/04 10:57:08;;;;;;;5.85;1.55;;;;;;;;;;4974711;28;20058;-70
2022/08/04 11:00:03;;;;;;;5.78;2.05;;;;;;;;;;4962337;28;20173;-72
2022/08/04 11:02:48;;;;;;;4.38;1.70;;;;;;;;;;4961808;28;20084;-71
2022/08/04 11:05:20;;;;;;;4.65;1.70;;;;;;;;;;4974612;28;20139;-73
2022/08/04 11:07:48;;;;;;;3.03;1.30;;;;;;;;;;4974494;28;20026;-71
2022/08/04 11:10:16;;;;;;;5.03;1.75;;;;;;;;;;4974510;28;20050;-73
2022/08/04 11:12:43;;;;;;;3.58;1.35;;;;;;;;;;4974553;28;20026;-73
2022/08/04 11:15:12;;;;;;;3.70;1.73;;;;;;;;;;4974449;28;20030;-72
2022/08/04 11:17:40;;;;;;;3.33;1.60;;;;;;;;;;4974790;28;20042;-71
2022/08/04 11:20:11;;;;;;;3.70;1.50;;;;;;;;;;4974935;28;20031;-70
2022/08/04 11:22:41;;;;;;;3.10;1.63;;;;;;;;;;4974391;28;20022;-71
2022/08/04 11:25:15;;;;;;;5.45;1.80;;;;;;;;;;4974397;28;20442;-75
2022/08/04 11:27:41;;;;;;;3.42;1.70;;;;;;;;;;4974572;28;20038;-72
2022/08/04 11:30:09;;;;;;;2.83;1.42;;;;;;;;;;4974341;28;20022;-72
2022/08/04 11:32:35;;;;;;;6.20;1.92;;;;;;;;;;4974554;28;20513;-73
2022/08/04 11:35:02;;;;;;;3.83;1.60;;;;;;;;;;4974253;28;20050;-69
2022/08/04 11:37:49;;;;;;;2.70;1.48;;;;;;;;;;4974528;28;20121;-70
2022/08/04 11:40:22;;;;;;;4.57;1.63;;;;;;;;;;4974756;28;20041;-71
2022/08/04 11:43:00;;;;;;;3.63;1.60;;;;;;;;;;4974790;28;20023;-72
2022/08/04 11:45:43;;;;;;;3.65;1.52;;;;;;;;;;4974450;28;20516;-72
2022/08/04 11:48:12;;;;;;;7.80;1.60;;;;;;;;;;4974341;28;20038;-77
2022/08/04 11:50:47;;;;;;;3.23;1.70;;;;;;;;;;4956794;28;20023;-74
2022/08/04 11:53:15;;;;;;;3.38;1.55;;;;;;;;;;4976248;28;20023;-77
2022/08/04 11:55:42;;;;;;;4.97;1.70;;;;;;;;;;4960495;28;20584;-76
2022/08/04 11:58:08;;;;;;;3.72;1.58;;;;;;;;;;4978226;28;20027;-74
2022/08/04 12:00:37;;;;;;;5.80;2.08;;;;;;;;;;4977643;28;20041;-72
2022/08/04 12:03:24;;;;;;;5.20;2.00;;;;;;;;;;4977902;28;20027;-73
2022/08/04 12:05:50;;;;;;;3.85;1.80;;;;;;;;;;4977807;28;20106;-73
2022/08/04 12:08:25;;;;;;;5.43;2.08;;;;;;;;;;4977689;28;20026;-74
2022/08/04 12:11:29;;;;;;;5.10;2.20;;;;;;;;;;4960331;28;20035;-72
2022/08/04 12:14:01;;;;;;;7.28;2.50;;;;;;;;;;4918362;29;20620;-72
2022/08/04 12:16:32;;;;;;;3.95;1.70;;;;;;;;;;4918139;29;20039;-73
2022/08/04 12:18:59;;;;;;;4.00;2.20;;;;;;;;;;4950579;28;20049;-73
2022/08/04 12:21:29;;;;;;;4.93;2.15;;;;;;;;;;4976998;28;20027;-73
2022/08/04 12:24:01;;;;;;;5.70;2.40;;;;;;;;;;4977539;28;20082;-75
2022/08/04 12:26:28;;;;;;;4.45;2.42;;;;;;;;;;4960172;28;20042;-74
2022/08/04 12:29:01;;;;;;;7.75;2.10;;;;;;;;;;4977322;28;20031;-74
2022/08/04 12:31:29;;;;;;;6.97;2.30;;;;;;;;;;4977298;28;20074;-74
2022/08/04 12:33:59;;;;;;;7.65;2.25;;;;;;;;;;4977285;28;20034;-71
2022/08/04 12:36:25;;;;;;;7.15;2.30;;;;;;;;;;4976492;28;20452;-69
2022/08/04 12:39:12;;;;;;;3.72;2.00;;;;;;;;;;4977140;28;20035;-69
2022/08/04 12:41:58;;;;;;;5.20;2.28;;;;;;;;;;4977248;28;20098;-73
2022/08/04 12:44:24;;;;;;;7.70;2.40;;;;;;;;;;4976558;28;20525;-75
2022/08/04 12:46:51;;;;;;;6.60;2.40;;;;;;;;;;4977198;28;20037;-75
2022/08/04 12:49:17;;;;;;;10.18;2.45;;;;;;;;;;4976974;28;20058;-74
2022/08/04 12:51:45;;;;;;;3.92;2.00;;;;;;;;;;4959538;28;20051;-75
2022/08/04 12:54:11;;;;;;;5.40;1.98;;;;;;;;;;4977138;28;20034;-72
2022/08/04 12:56:38;;;;;;;7.65;2.42;;;;;;;;;;4977104;28;20026;-76
2022/08/04 12:59:08;;;;;;;6.57;2.42;;;;;;;;;;4977084;28;20363;-75
2022/08/04 13:01:35;;;;;;;7.82;2.17;;;;;;;;;;4976747;28;20015;-78
2022/08/04 13:04:05;;;;;;;6.90;2.15;;;;;;;;;;4976431;28;20030;-71
2022/08/04 13:06:33;;;;;;;7.10;2.17;;;;;;;;;;4959097;28;20481;-73
2022/08/04 13:09:04;;;;;;;5.45;2.58;;;;;;;;;;4976640;28;20027;-71
2022/08/04 13:11:34;;;;;;;5.90;2.03;;;;;;;;;;4976807;28;20493;-72
2022/08/04 13:14:00;;;;;;;6.18;2.20;;;;;;;;;;4976804;28;20049;-70
2022/08/04 13:16:33;;;;;;;7.15;2.40;;;;;;;;;;4976458;28;20109;-72
2022/08/04 13:18:59;;;;;;;5.40;1.95;;;;;;;;;;4976746;28;20042;-75
2022/08/04 13:21:27;;;;;;;3.97;1.98;;;;;;;;;;4976561;28;20031;-74
2022/08/04 13:23:57;;;;;;;5.50;1.98;;;;;;;;;;4976554;28;20034;-74
2022/08/04 13:26:24;;;;;;;8.07;2.45;;;;;;;;;;4976493;28;20026;-74
2022/08/04 13:28:52;;;;;;;7.53;2.72;;;;;;;;;;4976481;28;20039;-74
2022/08/04 13:31:19;;;;;;;8.55;2.50;;;;;;;;;;4976255;28;20027;-74
2022/08/04 13:33:53;;;;;;;6.95;2.20;;;;;;;;;;4958837;28;20027;-72
2022/08/04 13:36:23;;;;;;;8.25;2.70;;;;;;;;;;4976429;28;20432;-75
2022/08/04 13:38:51;;;;;;;5.35;2.17;;;;;;;;;;4976416;28;20102;-75
2022/08/04 13:41:18;;;;;;;7.88;2.50;;;;;;;;;;4976504;28;20113;-72
2022/08/04 13:43:47;;;;;;;8.73;2.25;;;;;;;;;;4976054;28;20023;-74
2022/08/04 13:46:21;;;;;;;7.85;2.65;;;;;;;;;;4976495;28;20033;-74
2022/08/04 13:48:47;;;;;;;7.18;2.28;;;;;;;;;;4976110;28;20026;-74
2022/08/04 13:51:16;;;;;;;6.45;2.33;;;;;;;;;;4975844;28;20396;-74
2022/08/04 13:53:43;;;;;;;5.80;2.17;;;;;;;;;;4958505;28;20050;-74
2022/08/04 13:56:10;;;;;;;9.70;2.97;;;;;;;;;;4976082;28;20041;-75
2022/08/04 13:58:41;;;;;;;5.78;1.98;;;;;;;;;;4975845;28;20031;-74
2022/08/04 14:01:10;;;;;;;4.85;1.88;;;;;;;;;;4958023;28;20033;-73
2022/08/04 14:03:38;;;;;;;5.18;1.75;;;;;;;;;;4976020;28;20031;-73
2022/08/04 14:06:09;;;;;;;9.50;2.05;;;;;;;;;;4957915;28;20078;-73
2022/08/04 14:08:41;;;;;;;5.35;1.90;;;;;;;;;;4976300;28;20037;-72
2022/08/04 14:11:07;;;;;;;5.38;1.90;;;;;;;;;;4975788;28;20469;-70
2022/08/04 14:13:35;;;;;;;4.95;2.00;;;;;;;;;;4975709;28;20058;-71
2022/08/04 14:16:01;;;;;;;6.25;2.28;;;;;;;;;;4975220;28;20045;-69
2022/08/04 14:18:31;;;;;;;4.00;1.98;;;;;;;;;;4975796;28;20027;-70
2022/08/04 14:21:03;;;;;;;2.80;1.45;;;;;;;;;;4975350;28;20106;-69
2022/08/04 14:23:30;;;;;;;7.70;2.10;;;;;;;;;;4975856;28;20031;-69
2022/08/04 14:25:56;;;;;;;4.32;1.40;;;;;;;;;;4975510;28;20031;-72
2022/08/04 14:28:31;;;;;;;5.43;2.20;;;;;;;;;;4975147;28;20041;-73
2022/08/04 14:31:17;;;;;;;5.32;1.45;;;;;;;;;;4975675;28;20019;-72
2022/08/04 14:33:44;;;;;;;5.75;1.60;;;;;;;;;;4975342;28;20106;-74
2022/08/04 14:36:10;;;;;;;3.88;1.50;;;;;;;;;;4975015;28;20485;-75
2022/08/04 14:38:51;;;;;;;7.43;1.75;;;;;;;;;;4957595;28;20062;-74
2022/08/04 14:41:19;;;;;;;5.43;1.33;;;;;;;;;;4975750;28;20031;-76
2022/08/04 14:43:53;;;;;;;4.47;1.60;;;;;;;;;;4975090;28;20397;-75
2022/08/04 14:46:19;;;;;;;5.47;1.45;;;;;;;;;;4975169;28;20027;-73
2022/08/04 14:49:02;;;;;;;3.40;1.38;;;;;;;;;;4957412;28;20037;-74
2022/08/04 14:51:33;;;;;;;2.13;1.25;;;;;;;;;;4957474;28;20470;-76
2022/08/04 14:53:59;;;;;;;6.78;1.52;;;;;;;;;;4975087;28;20027;-77
2022/08/04 14:56:25;;;;;;;3.85;1.38;;;;;;;;;;4974713;28;20031;-77
2022/08/04 14:58:58;;;;;;;3.40;1.17;;;;;;;;;;4974957;28;20086;-75
2022/08/04 15:01:24;;;;;;;3.58;1.55;;;;;;;;;;4974658;28;20037;-71
2022/08/04 15:03:50;;;;;;;4.05;1.17;;;;;;;;;;4975030;28;20113;-71
2022/08/04 15:06:16;;;;;;;3.35;1.10;;;;;;;;;;4974561;28;20489;-70
2022/08/04 15:08:42;;;;;;;4.68;1.20;;;;;;;;;;4974395;28;20082;-71
2022/08/04 15:11:08;;;;;;;2.78;1.10;;;;;;;;;;4957192;28;20516;-70